sensor_id;sensor_type;location;lat;lon;timestamp;temperature;humidity
3923;DHT22;1976;51.694;6.256;2023-10-09T00:01:26;15.10;99.90
3923;DHT22;1976;51.694;6.256;2023-10-09T00:03:52;15.10;99.90
3923;DHT22;1976;51.694;6.256;2023-10-09T00:06:22;15.10;99.90
3923;DHT22;1976;51.694;6.256;2023-10-09T00:09:05;15.00;99.90
3923;DHT22;1976;51.694;6.256;2023-10-09T00:11:43;14.90;99.90
3923;DHT22;1976;51.694;6.256;2023-10-09T00:14:11;14.80;99.90
3923;DHT22;1976;51.694;6.256;2023-10-09T00:16:37;14.80;99.90
3923;DHT22;1976;51.694;6.256;2023-10-09T00:19:09;14.80;99.90
3923;DHT22;1976;51.694;6.256;2023-10-09T00:21:44;14.80;99.90
3923;DHT22;1976;51.694;6.256;2023-10-09T00:24:11;14.70;99.90
3923;DHT22;1976;51.694;6.256;2023-10-09T00:26:44;14.50;99.90
3923;DHT22;1976;51.694;6.256;2023-10-09T00:29:14;14.50;99.90
3923;DHT22;1976;51.694;6.256;2023-10-09T00:31:48;14.40;99.90
3923;DHT22;1976;51.694;6.256;2023-10-09T00:34:20;14.50;99.90
3923;DHT22;1976;51.694;6.256;2023-10-09T00:36:48;14.40;99.90
3923;DHT22;1976;51.694;6.256;2023-10-09T00:39:20;14.30;99.90
3923;DHT22;1976;51.694;6.256;2023-10-09T00:42:02;14.30;99.90
3923;DHT22;1976;51.694;6.256;2023-10-09T00:44:28;14.30;99.90
3923;DHT22;1976;51.694;6.256;2023-10-09T00:47:08;14.40;99.90
3923;DHT22;1976;51.694;6.256;2023-10-09T00:49:51;14.50;99.90
3923;DHT22;1976;51.694;6.256;2023-10-09T00:52:31;14.50;99.90
3923;DHT22;1976;51.694;6.256;2023-10-09T00:55:00;14.60;99.90
3923;DHT22;1976;51.694;6.256;2023-10-09T00:57:52;14.60;99.90
3923;DHT22;1976;51.694;6.256;2023-10-09T01:00:26;14.70;99.90
3923;DHT22;1976;51.694;6.256;2023-10-09T01:02:59;14.80;99.90
3923;DHT22;1976;51.694;6.256;2023-10-09T01:05:50;14.90;99.90
3923;DHT22;1976;51.694;6.256;2023-10-09T01:08:24;14.90;99.90
3923;DHT22;1976;51.694;6.256;2023-10-09T01:10:56;15.00;99.90
3923;DHT22;1976;51.694;6.256;2023-10-09T01:13:26;15.00;99.90
3923;DHT22;1976;51.694;6.256;2023-10-09T01:16:08;15.10;99.90
3923;DHT22;1976;51.694;6.256;2023-10-09T01:18:42;15.00;99.90
3923;DHT22;1976;51.694;6.256;2023-10-09T01:21:09;14.90;99.90
3923;DHT22;1976;51.694;6.256;2023-10-09T01:23:44;14.90;99.90
3923;DHT22;1976;51.694;6.256;2023-10-09T01:28:59;14.80;99.90
3923;DHT22;1976;51.694;6.256;2023-10-09T01:31:26;14.80;99.90
3923;DHT22;1976;51.694;6.256;2023-10-09T01:33:52;14.80;99.90
3923;DHT22;1976;51.694;6.256;2023-10-09T01:36:25;14.70;99.90
3923;DHT22;1976;51.694;6.256;2023-10-09T01:39:01;14.80;99.90
3923;DHT22;1976;51.694;6.256;2023-10-09T01:41:33;14.70;99.90
3923;DHT22;1976;51.694;6.256;2023-10-09T01:43:59;14.70;99.90
3923;DHT22;1976;51.694;6.256;2023-10-09T01:46:28;14.70;99.90
3923;DHT22;1976;51.694;6.256;2023-10-09T01:48:53;14.70;99.90
3923;DHT22;1976;51.694;6.256;2023-10-09T01:51:20;14.70;99.90
3923;DHT22;1976;51.694;6.256;2023-10-09T01:53:45;14.70;99.90
3923;DHT22;1976;51.694;6.256;2023-10-09T01:56:22;14.70;99.90
3923;DHT22;1976;51.694;6.256;2023-10-09T01:58:48;14.80;99.90
3923;DHT22;1976;51.694;6.256;2023-10-09T02:01:15;14.90;99.90
3923;DHT22;1976;51.694;6.256;2023-10-09T02:03:41;14.90;99.90
3923;DHT22;1976;51.694;6.256;2023-10-09T02:06:09;14.90;99.90
3923;DHT22;1976;51.694;6.256;2023-10-09T02:08:53;15.00;99.90
3923;DHT22;1976;51.694;6.256;2023-10-09T02:11:19;15.10;99.90
3923;DHT22;1976;51.694;6.256;2023-10-09T02:13:51;15.10;99.90
3923;DHT22;1976;51.694;6.256;2023-10-09T02:16:26;15.00;99.90
3923;DHT22;1976;51.694;6.256;2023-10-09T02:18:55;15.00;99.90
3923;DHT22;1976;51.694;6.256;2023-10-09T02:21:33;14.90;99.90
3923;DHT22;1976;51.694;6.256;2023-10-09T02:24:02;14.90;99.90
3923;DHT22;1976;51.694;6.256;2023-10-09T02:26:31;14.90;99.90
3923;DHT22;1976;51.694;6.256;2023-10-09T02:29:17;14.90;99.90
3923;DHT22;1976;51.694;6.256;2023-10-09T02:31:42;15.00;99.90
3923;DHT22;1976;51.694;6.256;2023-10-09T02:34:12;15.00;99.90
3923;DHT22;1976;51.694;6.256;2023-10-09T02:36:38;15.00;99.90
3923;DHT22;1976;51.694;6.256;2023-10-09T02:39:14;15.00;99.90
3923;DHT22;1976;51.694;6.256;2023-10-09T02:41:53;15.00;99.90
3923;DHT22;1976;51.694;6.256;2023-10-09T02:44:44;15.00;99.90
3923;DHT22;1976;51.694;6.256;2023-10-09T02:47:15;15.10;99.90
3923;DHT22;1976;51.694;6.256;2023-10-09T02:49:55;15.10;99.90
3923;DHT22;1976;51.694;6.256;2023-10-09T02:52:26;15.20;99.90
3923;DHT22;1976;51.694;6.256;2023-10-09T02:54:58;15.30;99.90
3923;DHT22;1976;51.694;6.256;2023-10-09T02:57:33;15.40;99.90
3923;DHT22;1976;51.694;6.256;2023-10-09T03:00:05;15.40;99.90
3923;DHT22;1976;51.694;6.256;2023-10-09T03:02:35;15.40;99.90
3923;DHT22;1976;51.694;6.256;2023-10-09T03:05:06;15.50;99.90
3923;DHT22;1976;51.694;6.256;2023-10-09T03:07:32;15.50;99.90
3923;DHT22;1976;51.694;6.256;2023-10-09T03:09:59;15.50;99.90
3923;DHT22;1976;51.694;6.256;2023-10-09T03:12:25;15.60;99.90
3923;DHT22;1976;51.694;6.256;2023-10-09T03:14:53;15.60;99.90
3923;DHT22;1976;51.694;6.256;2023-10-09T03:17:24;15.60;99.90
3923;DHT22;1976;51.694;6.256;2023-10-09T03:19:49;15.70;99.90
3923;DHT22;1976;51.694;6.256;2023-10-09T03:22:15;15.70;99.90
3923;DHT22;1976;51.694;6.256;2023-10-09T03:24:41;15.70;99.90
3923;DHT22;1976;51.694;6.256;2023-10-09T03:27:14;15.70;99.90
3923;DHT22;1976;51.694;6.256;2023-10-09T03:29:41;15.70;99.90
3923;DHT22;1976;51.694;6.256;2023-10-09T03:32:07;15.60;99.90
3923;DHT22;1976;51.694;6.256;2023-10-09T03:34:34;15.70;99.90
3923;DHT22;1976;51.694;6.256;2023-10-09T03:36:59;15.60;99.90
3923;DHT22;1976;51.694;6.256;2023-10-09T03:39:36;15.60;99.90
3923;DHT22;1976;51.694;6.256;2023-10-09T03:42:06;15.60;99.90
3923;DHT22;1976;51.694;6.256;2023-10-09T03:44:37;15.60;99.90
3923;DHT22;1976;51.694;6.256;2023-10-09T03:47:07;15.70;99.90
3923;DHT22;1976;51.694;6.256;2023-10-09T03:49:35;15.70;99.90
3923;DHT22;1976;51.694;6.256;2023-10-09T03:52:05;15.70;99.90
3923;DHT22;1976;51.694;6.256;2023-10-09T03:54:32;15.60;99.90
3923;DHT22;1976;51.694;6.256;2023-10-09T03:57:00;15.60;99.90
3923;DHT22;1976;51.694;6.256;2023-10-09T03:59:27;15.60;99.90
3923;DHT22;1976;51.694;6.256;2023-10-09T04:01:57;15.60;99.90
3923;DHT22;1976;51.694;6.256;2023-10-09T04:04:24;15.60;99.90
3923;DHT22;1976;51.694;6.256;2023-10-09T04:06:51;15.70;99.90
3923;DHT22;1976;51.694;6.256;2023-10-09T04:09:19;15.80;99.90
3923;DHT22;1976;51.694;6.256;2023-10-09T04:14:23;15.90;99.90
3923;DHT22;1976;51.694;6.256;2023-10-09T04:17:01;15.90;99.90
3923;DHT22;1976;51.694;6.256;2023-10-09T04:19:45;15.90;99.90
3923;DHT22;1976;51.694;6.256;2023-10-09T04:22:16;15.90;99.90
3923;DHT22;1976;51.694;6.256;2023-10-09T04:24:52;15.90;99.90
3923;DHT22;1976;51.694;6.256;2023-10-09T04:27:18;15.80;99.90
3923;DHT22;1976;51.694;6.256;2023-10-09T04:29:52;15.80;99.90
3923;DHT22;1976;51.694;6.256;2023-10-09T04:32:19;15.80;99.90
3923;DHT22;1976;51.694;6.256;2023-10-09T04:34:46;16.00;99.90
3923;DHT22;1976;51.694;6.256;2023-10-09T04:37:15;16.10;99.90
3923;DHT22;1976;51.694;6.256;2023-10-09T04:39:43;16.10;99.90
3923;DHT22;1976;51.694;6.256;2023-10-09T04:42:13;16.10;99.90
3923;DHT22;1976;51.694;6.256;2023-10-09T04:44:45;16.10;99.90
3923;DHT22;1976;51.694;6.256;2023-10-09T04:47:35;16.10;99.90
3923;DHT22;1976;51.694;6.256;2023-10-09T04:50:05;16.20;99.90
3923;DHT22;1976;51.694;6.256;2023-10-09T04:52:35;16.30;99.90
3923;DHT22;1976;51.694;6.256;2023-10-09T04:55:01;16.30;99.90
3923;DHT22;1976;51.694;6.256;2023-10-09T04:57:35;16.20;99.90
3923;DHT22;1976;51.694;6.256;2023-10-09T05:00:08;16.10;99.90
3923;DHT22;1976;51.694;6.256;2023-10-09T05:02:56;16.00;99.90
3923;DHT22;1976;51.694;6.256;2023-10-09T05:05:31;16.00;99.90
3923;DHT22;1976;51.694;6.256;2023-10-09T05:08:17;16.10;99.90
3923;DHT22;1976;51.694;6.256;2023-10-09T05:10:47;16.00;99.90
3923;DHT22;1976;51.694;6.256;2023-10-09T05:13:31;16.00;99.90
3923;DHT22;1976;51.694;6.256;2023-10-09T05:16:14;15.90;99.90
3923;DHT22;1976;51.694;6.256;2023-10-09T05:18:54;15.90;99.90
3923;DHT22;1976;51.694;6.256;2023-10-09T05:21:35;15.90;99.90
3923;DHT22;1976;51.694;6.256;2023-10-09T05:24:03;15.80;99.90
3923;DHT22;1976;51.694;6.256;2023-10-09T05:26:42;15.90;99.90
3923;DHT22;1976;51.694;6.256;2023-10-09T05:29:10;15.90;99.90
3923;DHT22;1976;51.694;6.256;2023-10-09T05:31:51;15.80;99.90
3923;DHT22;1976;51.694;6.256;2023-10-09T05:34:32;15.80;99.90
3923;DHT22;1976;51.694;6.256;2023-10-09T05:37:17;15.80;99.90
3923;DHT22;1976;51.694;6.256;2023-10-09T05:39:46;15.80;99.90
3923;DHT22;1976;51.694;6.256;2023-10-09T05:42:45;15.80;99.90
3923;DHT22;1976;51.694;6.256;2023-10-09T05:45:15;15.80;99.90
3923;DHT22;1976;51.694;6.256;2023-10-09T05:47:48;15.90;99.90
3923;DHT22;1976;51.694;6.256;2023-10-09T05:50:26;15.90;99.90
3923;DHT22;1976;51.694;6.256;2023-10-09T05:52:53;15.90;99.90
3923;DHT22;1976;51.694;6.256;2023-10-09T05:55:23;15.90;99.90
3923;DHT22;1976;51.694;6.256;2023-10-09T05:57:52;15.90;99.90
3923;DHT22;1976;51.694;6.256;2023-10-09T06:00:36;16.00;99.90
3923;DHT22;1976;51.694;6.256;2023-10-09T06:03:21;15.90;99.90
3923;DHT22;1976;51.694;6.256;2023-10-09T06:05:53;15.90;99.90
3923;DHT22;1976;51.694;6.256;2023-10-09T06:08:23;15.90;99.90
3923;DHT22;1976;51.694;6.256;2023-10-09T06:11:13;15.90;99.90
3923;DHT22;1976;51.694;6.256;2023-10-09T06:14:01;15.90;99.90
3923;DHT22;1976;51.694;6.256;2023-10-09T06:16:39;15.80;99.90
3923;DHT22;1976;51.694;6.256;2023-10-09T06:19:12;15.80;99.90
3923;DHT22;1976;51.694;6.256;2023-10-09T06:21:51;15.80;99.90
3923;DHT22;1976;51.694;6.256;2023-10-09T06:24:20;15.80;99.90
3923;DHT22;1976;51.694;6.256;2023-10-09T06:26:48;15.80;99.90
3923;DHT22;1976;51.694;6.256;2023-10-09T06:29:23;15.90;99.90
3923;DHT22;1976;51.694;6.256;2023-10-09T06:32:08;15.90;99.90
3923;DHT22;1976;51.694;6.256;2023-10-09T06:35:00;15.80;99.90
3923;DHT22;1976;51.694;6.256;2023-10-09T06:38:04;15.80;99.90
3923;DHT22;1976;51.694;6.256;2023-10-09T06:40:50;15.80;99.90
3923;DHT22;1976;51.694;6.256;2023-10-09T06:43:47;15.90;99.90
3923;DHT22;1976;51.694;6.256;2023-10-09T06:46:18;16.00;99.90
3923;DHT22;1976;51.694;6.256;2023-10-09T06:48:49;16.10;99.90
3923;DHT22;1976;51.694;6.256;2023-10-09T06:51:25;16.20;99.90
3923;DHT22;1976;51.694;6.256;2023-10-09T06:53:54;16.30;99.90
3923;DHT22;1976;51.694;6.256;2023-10-09T06:56:27;16.50;99.90
3923;DHT22;1976;51.694;6.256;2023-10-09T06:59:03;16.50;99.90
3923;DHT22;1976;51.694;6.256;2023-10-09T07:01:39;16.40;99.90
3923;DHT22;1976;51.694;6.256;2023-10-09T07:04:11;16.30;99.90
3923;DHT22;1976;51.694;6.256;2023-10-09T07:07:07;16.20;99.90
3923;DHT22;1976;51.694;6.256;2023-10-09T07:09:50;16.10;99.90
3923;DHT22;1976;51.694;6.256;2023-10-09T07:12:34;16.10;99.90
3923;DHT22;1976;51.694;6.256;2023-10-09T07:15:08;16.00;99.90
3923;DHT22;1976;51.694;6.256;2023-10-09T07:17:33;16.00;99.90
3923;DHT22;1976;51.694;6.256;2023-10-09T07:19:59;16.00;99.90
3923;DHT22;1976;51.694;6.256;2023-10-09T07:23:00;16.00;99.90
3923;DHT22;1976;51.694;6.256;2023-10-09T07:25:42;16.10;99.90
3923;DHT22;1976;51.694;6.256;2023-10-09T07:28:21;16.20;99.90
3923;DHT22;1976;51.694;6.256;2023-10-09T07:31:19;16.10;99.90
3923;DHT22;1976;51.694;6.256;2023-10-09T07:33:53;16.10;99.90
3923;DHT22;1976;51.694;6.256;2023-10-09T07:36:25;16.20;99.90
3923;DHT22;1976;51.694;6.256;2023-10-09T07:39:03;16.30;99.90
3923;DHT22;1976;51.694;6.256;2023-10-09T07:41:38;16.50;99.90
3923;DHT22;1976;51.694;6.256;2023-10-09T07:44:10;16.50;99.90
3923;DHT22;1976;51.694;6.256;2023-10-09T07:46:44;16.60;99.90
3923;DHT22;1976;51.694;6.256;2023-10-09T07:49:39;16.80;99.90
3923;DHT22;1976;51.694;6.256;2023-10-09T07:52:05;16.80;99.90
3923;DHT22;1976;51.694;6.256;2023-10-09T07:54:31;16.70;99.90
3923;DHT22;1976;51.694;6.256;2023-10-09T07:56:58;16.70;99.90
3923;DHT22;1976;51.694;6.256;2023-10-09T07:59:37;16.80;99.90
3923;DHT22;1976;51.694;6.256;2023-10-09T08:02:07;16.90;99.90
3923;DHT22;1976;51.694;6.256;2023-10-09T08:04:39;16.80;99.90
3923;DHT22;1976;51.694;6.256;2023-10-09T08:07:14;16.80;99.90
3923;DHT22;1976;51.694;6.256;2023-10-09T08:09:54;16.80;99.90
3923;DHT22;1976;51.694;6.256;2023-10-09T08:12:38;16.80;99.90
3923;DHT22;1976;51.694;6.256;2023-10-09T08:15:10;16.90;99.90
3923;DHT22;1976;51.694;6.256;2023-10-09T08:17:58;16.70;99.90
3923;DHT22;1976;51.694;6.256;2023-10-09T08:20:36;16.50;99.90
3923;DHT22;1976;51.694;6.256;2023-10-09T08:23:17;16.30;99.90
3923;DHT22;1976;51.694;6.256;2023-10-09T08:26:02;16.20;99.90
3923;DHT22;1976;51.694;6.256;2023-10-09T08:28:44;16.20;99.90
3923;DHT22;1976;51.694;6.256;2023-10-09T08:34:10;16.30;99.90
3923;DHT22;1976;51.694;6.256;2023-10-09T08:36:49;16.50;99.90
3923;DHT22;1976;51.694;6.256;2023-10-09T08:39:21;16.50;99.90
3923;DHT22;1976;51.694;6.256;2023-10-09T08:41:56;16.60;99.90
3923;DHT22;1976;51.694;6.256;2023-10-09T08:44:26;16.80;99.90
3923;DHT22;1976;51.694;6.256;2023-10-09T08:46:55;17.10;99.90
3923;DHT22;1976;51.694;6.256;2023-10-09T08:49:23;17.40;99.90
3923;DHT22;1976;51.694;6.256;2023-10-09T08:51:49;17.70;99.90
3923;DHT22;1976;51.694;6.256;2023-10-09T08:54:18;18.00;99.90
3923;DHT22;1976;51.694;6.256;2023-10-09T08:56:45;18.30;99.90
3923;DHT22;1976;51.694;6.256;2023-10-09T08:59:18;18.50;99.90
3923;DHT22;1976;51.694;6.256;2023-10-09T09:01:48;18.40;99.90
3923;DHT22;1976;51.694;6.256;2023-10-09T09:04:37;18.40;99.90
3923;DHT22;1976;51.694;6.256;2023-10-09T09:07:04;18.40;99.90
3923;DHT22;1976;51.694;6.256;2023-10-09T09:09:30;18.40;99.90
3923;DHT22;1976;51.694;6.256;2023-10-09T09:11:57;18.50;99.90
3923;DHT22;1976;51.694;6.256;2023-10-09T09:14:45;18.60;99.90
3923;DHT22;1976;51.694;6.256;2023-10-09T09:17:22;18.90;99.90
3923;DHT22;1976;51.694;6.256;2023-10-09T09:19:55;19.20;99.90
3923;DHT22;1976;51.694;6.256;2023-10-09T09:22:23;19.40;99.90
3923;DHT22;1976;51.694;6.256;2023-10-09T09:24:58;19.50;99.90
3923;DHT22;1976;51.694;6.256;2023-10-09T09:27:45;19.80;99.90
3923;DHT22;1976;51.694;6.256;2023-10-09T09:30:35;19.80;99.90
3923;DHT22;1976;51.694;6.256;2023-10-09T09:33:21;19.70;99.90
3923;DHT22;1976;51.694;6.256;2023-10-09T09:36:02;19.70;99.90
3923;DHT22;1976;51.694;6.256;2023-10-09T09:38:30;19.80;99.90
3923;DHT22;1976;51.694;6.256;2023-10-09T09:41:08;20.20;99.90
3923;DHT22;1976;51.694;6.256;2023-10-09T09:43:35;20.50;99.90
3923;DHT22;1976;51.694;6.256;2023-10-09T09:46:01;20.70;99.90
3923;DHT22;1976;51.694;6.256;2023-10-09T09:48:37;20.80;99.90
3923;DHT22;1976;51.694;6.256;2023-10-09T09:51:05;21.00;99.90
3923;DHT22;1976;51.694;6.256;2023-10-09T09:53:34;20.90;99.90
3923;DHT22;1976;51.694;6.256;2023-10-09T09:56:00;20.80;99.90
3923;DHT22;1976;51.694;6.256;2023-10-09T09:58:28;20.80;99.90
3923;DHT22;1976;51.694;6.256;2023-10-09T10:01:03;20.80;99.90
3923;DHT22;1976;51.694;6.256;2023-10-09T10:03:53;20.80;99.90
3923;DHT22;1976;51.694;6.256;2023-10-09T10:06:22;20.60;99.90
3923;DHT22;1976;51.694;6.256;2023-10-09T10:08:52;20.70;99.90
3923;DHT22;1976;51.694;6.256;2023-10-09T10:11:53;20.80;99.90
3923;DHT22;1976;51.694;6.256;2023-10-09T10:14:18;20.90;99.90
3923;DHT22;1976;51.694;6.256;2023-10-09T10:17:06;21.00;99.90
3923;DHT22;1976;51.694;6.256;2023-10-09T10:20:06;21.30;99.90
3923;DHT22;1976;51.694;6.256;2023-10-09T10:22:44;21.50;99.90
3923;DHT22;1976;51.694;6.256;2023-10-09T10:25:33;21.70;99.90
3923;DHT22;1976;51.694;6.256;2023-10-09T10:30:54;21.80;99.90
3923;DHT22;1976;51.694;6.256;2023-10-09T10:33:20;21.70;99.90
3923;DHT22;1976;51.694;6.256;2023-10-09T10:35:48;21.80;99.90
3923;DHT22;1976;51.694;6.256;2023-10-09T10:38:31;21.80;99.90
3923;DHT22;1976;51.694;6.256;2023-10-09T10:43:37;22.00;99.90
3923;DHT22;1976;51.694;6.256;2023-10-09T10:46:19;22.10;99.90
3923;DHT22;1976;51.694;6.256;2023-10-09T10:49:07;22.10;99.90
3923;DHT22;1976;51.694;6.256;2023-10-09T10:51:39;22.00;99.90
3923;DHT22;1976;51.694;6.256;2023-10-09T10:54:05;22.00;99.90
3923;DHT22;1976;51.694;6.256;2023-10-09T10:56:50;22.30;99.90
3923;DHT22;1976;51.694;6.256;2023-10-09T10:59:18;22.60;99.90
3923;DHT22;1976;51.694;6.256;2023-10-09T11:01:52;22.80;99.90
3923;DHT22;1976;51.694;6.256;2023-10-09T11:04:28;23.10;99.90
3923;DHT22;1976;51.694;6.256;2023-10-09T11:06:57;23.20;99.90
3923;DHT22;1976;51.694;6.256;2023-10-09T11:09:49;23.30;99.90
3923;DHT22;1976;51.694;6.256;2023-10-09T11:15:14;23.40;99.90
3923;DHT22;1976;51.694;6.256;2023-10-09T11:18:01;23.60;99.90
3923;DHT22;1976;51.694;6.256;2023-10-09T11:20:43;24.00;99.90
3923;DHT22;1976;51.694;6.256;2023-10-09T11:23:22;24.30;99.90
3923;DHT22;1976;51.694;6.256;2023-10-09T11:26:02;24.60;99.90
3923;DHT22;1976;51.694;6.256;2023-10-09T11:29:05;24.90;99.90
3923;DHT22;1976;51.694;6.256;2023-10-09T11:31:39;25.10;99.90
3923;DHT22;1976;51.694;6.256;2023-10-09T11:34:18;25.20;99.90
3923;DHT22;1976;51.694;6.256;2023-10-09T11:37:04;25.20;99.90
3923;DHT22;1976;51.694;6.256;2023-10-09T11:39:37;25.10;99.90
3923;DHT22;1976;51.694;6.256;2023-10-09T11:42:18;25.20;99.90
3923;DHT22;1976;51.694;6.256;2023-10-09T11:45:03;25.20;99.90
3923;DHT22;1976;51.694;6.256;2023-10-09T11:47:48;25.30;99.90
3923;DHT22;1976;51.694;6.256;2023-10-09T11:50:39;25.30;99.90
3923;DHT22;1976;51.694;6.256;2023-10-09T11:53:20;25.20;99.90
3923;DHT22;1976;51.694;6.256;2023-10-09T11:55:49;25.00;99.90
3923;DHT22;1976;51.694;6.256;2023-10-09T11:58:16;24.90;99.90
3923;DHT22;1976;51.694;6.256;2023-10-09T12:03:17;25.10;99.90
3923;DHT22;1976;51.694;6.256;2023-10-09T12:05:47;24.90;99.90
3923;DHT22;1976;51.694;6.256;2023-10-09T12:08:13;24.60;99.90
3923;DHT22;1976;51.694;6.256;2023-10-09T12:10:41;24.30;99.90
3923;DHT22;1976;51.694;6.256;2023-10-09T12:13:07;24.10;99.90
3923;DHT22;1976;51.694;6.256;2023-10-09T12:15:33;24.00;99.90
3923;DHT22;1976;51.694;6.256;2023-10-09T12:18:06;24.00;99.90
3923;DHT22;1976;51.694;6.256;2023-10-09T12:20:42;24.00;99.90
3923;DHT22;1976;51.694;6.256;2023-10-09T12:23:15;24.10;99.90
3923;DHT22;1976;51.694;6.256;2023-10-09T12:25:41;24.00;99.90
3923;DHT22;1976;51.694;6.256;2023-10-09T12:28:10;24.00;99.90
3923;DHT22;1976;51.694;6.256;2023-10-09T12:30:38;24.10;99.90
3923;DHT22;1976;51.694;6.256;2023-10-09T12:33:07;24.20;99.90
3923;DHT22;1976;51.694;6.256;2023-10-09T12:35:38;24.40;99.90
3923;DHT22;1976;51.694;6.256;2023-10-09T12:38:04;24.40;99.90
3923;DHT22;1976;51.694;6.256;2023-10-09T12:40:40;24.40;99.90
3923;DHT22;1976;51.694;6.256;2023-10-09T12:43:09;24.50;99.90
3923;DHT22;1976;51.694;6.256;2023-10-09T12:45:42;25.00;99.90
3923;DHT22;1976;51.694;6.256;2023-10-09T12:48:08;25.50;99.90
3923;DHT22;1976;51.694;6.256;2023-10-09T12:50:38;25.90;99.90
3923;DHT22;1976;51.694;6.256;2023-10-09T12:53:10;25.70;99.90
3923;DHT22;1976;51.694;6.256;2023-10-09T12:55:36;25.30;99.90
3923;DHT22;1976;51.694;6.256;2023-10-09T12:58:06;25.10;99.90
3923;DHT22;1976;51.694;6.256;2023-10-09T13:00:34;25.20;99.90
3923;DHT22;1976;51.694;6.256;2023-10-09T13:03:04;25.50;99.90
3923;DHT22;1976;51.694;6.256;2023-10-09T13:05:39;25.40;99.90
3923;DHT22;1976;51.694;6.256;2023-10-09T13:08:20;25.20;99.90
3923;DHT22;1976;51.694;6.256;2023-10-09T13:10:48;25.00;99.90
3923;DHT22;1976;51.694;6.256;2023-10-09T13:13:24;24.70;99.90
3923;DHT22;1976;51.694;6.256;2023-10-09T13:15:49;24.50;99.90
3923;DHT22;1976;51.694;6.256;2023-10-09T13:18:15;24.40;99.90
3923;DHT22;1976;51.694;6.256;2023-10-09T13:20:40;24.40;99.90
3923;DHT22;1976;51.694;6.256;2023-10-09T13:23:06;24.40;99.90
3923;DHT22;1976;51.694;6.256;2023-10-09T13:25:32;24.40;99.90
3923;DHT22;1976;51.694;6.256;2023-10-09T13:28:05;24.50;99.90
3923;DHT22;1976;51.694;6.256;2023-10-09T13:30:31;24.70;99.90
3923;DHT22;1976;51.694;6.256;2023-10-09T13:33:04;24.60;99.90
3923;DHT22;1976;51.694;6.256;2023-10-09T13:35:31;24.50;99.90
3923;DHT22;1976;51.694;6.256;2023-10-09T13:38:03;24.60;99.90
3923;DHT22;1976;51.694;6.256;2023-10-09T13:40:33;24.70;99.90
3923;DHT22;1976;51.694;6.256;2023-10-09T13:43:00;24.80;99.90
3923;DHT22;1976;51.694;6.256;2023-10-09T13:45:27;24.80;99.90
3923;DHT22;1976;51.694;6.256;2023-10-09T13:47:54;25.10;99.90
3923;DHT22;1976;51.694;6.256;2023-10-09T13:50:23;25.40;99.90
3923;DHT22;1976;51.694;6.256;2023-10-09T13:52:48;26.10;99.90
3923;DHT22;1976;51.694;6.256;2023-10-09T13:55:14;26.70;99.90
3923;DHT22;1976;51.694;6.256;2023-10-09T13:57:45;27.10;99.90
3923;DHT22;1976;51.694;6.256;2023-10-09T14:00:14;27.10;99.80
3923;DHT22;1976;51.694;6.256;2023-10-09T14:02:58;27.00;99.50
3923;DHT22;1976;51.694;6.256;2023-10-09T14:05:27;27.40;99.90
3923;DHT22;1976;51.694;6.256;2023-10-09T14:07:53;27.90;99.50
3923;DHT22;1976;51.694;6.256;2023-10-09T14:10:22;27.90;98.90
3923;DHT22;1976;51.694;6.256;2023-10-09T14:12:52;27.60;99.00
3923;DHT22;1976;51.694;6.256;2023-10-09T14:15:19;27.10;98.90
3923;DHT22;1976;51.694;6.256;2023-10-09T14:17:45;26.50;99.50
3923;DHT22;1976;51.694;6.256;2023-10-09T14:20:21;25.80;99.90
3923;DHT22;1976;51.694;6.256;2023-10-09T14:22:58;25.30;99.90
3923;DHT22;1976;51.694;6.256;2023-10-09T14:25:23;24.80;99.90
3923;DHT22;1976;51.694;6.256;2023-10-09T14:27:49;24.60;99.90
3923;DHT22;1976;51.694;6.256;2023-10-09T14:30:18;24.40;99.90
3923;DHT22;1976;51.694;6.256;2023-10-09T14:32:56;24.20;99.90
3923;DHT22;1976;51.694;6.256;2023-10-09T14:35:22;24.00;99.90
3923;DHT22;1976;51.694;6.256;2023-10-09T14:37:55;23.70;99.90
3923;DHT22;1976;51.694;6.256;2023-10-09T14:40:21;23.70;99.90
3923;DHT22;1976;51.694;6.256;2023-10-09T14:42:57;23.60;99.90
3923;DHT22;1976;51.694;6.256;2023-10-09T14:45:26;23.60;99.90
3923;DHT22;1976;51.694;6.256;2023-10-09T14:47:53;23.50;99.90
3923;DHT22;1976;51.694;6.256;2023-10-09T14:50:20;23.40;99.90
3923;DHT22;1976;51.694;6.256;2023-10-09T14:52:48;23.40;99.90
3923;DHT22;1976;51.694;6.256;2023-10-09T14:55:16;23.40;99.90
3923;DHT22;1976;51.694;6.256;2023-10-09T14:57:52;23.50;99.90
3923;DHT22;1976;51.694;6.256;2023-10-09T15:00:17;23.50;99.90
3923;DHT22;1976;51.694;6.256;2023-10-09T15:02:49;23.50;99.90
3923;DHT22;1976;51.694;6.256;2023-10-09T15:05:16;23.50;99.90
3923;DHT22;1976;51.694;6.256;2023-10-09T15:07:42;23.50;99.90
3923;DHT22;1976;51.694;6.256;2023-10-09T15:10:08;23.50;99.90
3923;DHT22;1976;51.694;6.256;2023-10-09T15:12:35;23.40;99.90
3923;DHT22;1976;51.694;6.256;2023-10-09T15:15:06;23.30;99.90
3923;DHT22;1976;51.694;6.256;2023-10-09T15:17:42;23.30;99.90
3923;DHT22;1976;51.694;6.256;2023-10-09T15:20:11;23.30;99.90
3923;DHT22;1976;51.694;6.256;2023-10-09T15:22:42;23.30;99.90
3923;DHT22;1976;51.694;6.256;2023-10-09T15:25:08;23.30;99.90
3923;DHT22;1976;51.694;6.256;2023-10-09T15:27:34;23.30;99.90
3923;DHT22;1976;51.694;6.256;2023-10-09T15:30:00;23.20;99.90
3923;DHT22;1976;51.694;6.256;2023-10-09T15:32:25;23.20;99.90
3923;DHT22;1976;51.694;6.256;2023-10-09T15:34:58;23.10;99.90
3923;DHT22;1976;51.694;6.256;2023-10-09T15:37:23;23.00;99.90
3923;DHT22;1976;51.694;6.256;2023-10-09T15:39:49;22.90;99.90
3923;DHT22;1976;51.694;6.256;2023-10-09T15:42:15;22.80;99.90
3923;DHT22;1976;51.694;6.256;2023-10-09T15:44:41;22.70;99.90
3923;DHT22;1976;51.694;6.256;2023-10-09T15:47:07;22.70;99.90
3923;DHT22;1976;51.694;6.256;2023-10-09T15:49:34;22.70;99.90
3923;DHT22;1976;51.694;6.256;2023-10-09T15:52:03;22.60;99.90
3923;DHT22;1976;51.694;6.256;2023-10-09T15:54:29;22.60;99.90
3923;DHT22;1976;51.694;6.256;2023-10-09T15:56:55;22.60;99.90
3923;DHT22;1976;51.694;6.256;2023-10-09T15:59:23;22.50;99.90
3923;DHT22;1976;51.694;6.256;2023-10-09T16:01:50;22.30;99.90
3923;DHT22;1976;51.694;6.256;2023-10-09T16:04:17;22.30;99.90
3923;DHT22;1976;51.694;6.256;2023-10-09T16:06:42;22.10;99.90
3923;DHT22;1976;51.694;6.256;2023-10-09T16:09:08;22.00;99.90
3923;DHT22;1976;51.694;6.256;2023-10-09T16:11:39;21.90;99.90
3923;DHT22;1976;51.694;6.256;2023-10-09T16:14:05;21.90;99.90
3923;DHT22;1976;51.694;6.256;2023-10-09T16:16:35;21.80;99.90
3923;DHT22;1976;51.694;6.256;2023-10-09T16:19:07;21.80;99.90
3923;DHT22;1976;51.694;6.256;2023-10-09T16:21:35;21.70;99.90
3923;DHT22;1976;51.694;6.256;2023-10-09T16:24:01;21.70;99.90
3923;DHT22;1976;51.694;6.256;2023-10-09T16:26:26;21.70;99.90
3923;DHT22;1976;51.694;6.256;2023-10-09T16:28:53;21.70;99.90
3923;DHT22;1976;51.694;6.256;2023-10-09T16:31:19;21.70;99.90
3923;DHT22;1976;51.694;6.256;2023-10-09T16:33:45;21.60;99.90
3923;DHT22;1976;51.694;6.256;2023-10-09T16:36:11;21.50;99.90
3923;DHT22;1976;51.694;6.256;2023-10-09T16:38:36;21.40;99.90
3923;DHT22;1976;51.694;6.256;2023-10-09T16:41:05;21.30;99.90
3923;DHT22;1976;51.694;6.256;2023-10-09T16:43:34;21.20;99.90
3923;DHT22;1976;51.694;6.256;2023-10-09T16:46:02;21.00;99.90
3923;DHT22;1976;51.694;6.256;2023-10-09T16:48:34;20.90;99.90
3923;DHT22;1976;51.694;6.256;2023-10-09T16:51:03;20.80;99.90
3923;DHT22;1976;51.694;6.256;2023-10-09T16:53:31;20.70;99.90
3923;DHT22;1976;51.694;6.256;2023-10-09T16:55:57;20.60;99.90
3923;DHT22;1976;51.694;6.256;2023-10-09T16:58:23;20.50;99.90